Time;durP1;ratioP1;P1;durP2;ratioP2;P2;SDS_P1;SDS_P2;PMS_P1;PMS_P2;Temp;Humidity;BMP_temperature;BMP_pressure;BME280_temperature;BME280_humidity;BME280_pressure;Samples;Min_cycle;Max_cycle;Signal;HPM_P1;HPM_P2
2023/03/06 00:00:36;;;;;;;3.15;1.40;;;1.70;99.90;;;;;;5074833;28;20037;-81
2023/03/06 00:03:02;;;;;;;3.83;1.70;;;1.90;99.90;;;;;;5074202;28;20086;-82
2023/03/06 00:05:28;;;;;;;4.45;1.50;;;1.50;99.90;;;;;;5057155;28;20044;-82
2023/03/06 00:07:54;;;;;;;5.28;1.50;;;1.40;99.90;;;;;;5040910;28;20047;-82
2023/03/06 00:10:28;;;;;;;2.25;1.40;;;1.40;99.90;;;;;;5072785;28;20078;-83
2023/03/06 00:12:58;;;;;;;2.83;1.42;;;1.40;99.90;;;;;;5057785;28;20190;-81
2023/03/06 00:15:25;;;;;;;3.50;1.52;;;1.80;99.90;;;;;;5056339;28;20048;-81
2023/03/06 00:17:51;;;;;;;2.97;1.38;;;1.40;99.90;;;;;;5074433;28;20092;-81
2023/03/06 00:20:18;;;;;;;3.72;1.58;;;1.40;99.90;;;;;;5075506;28;20056;-81
2023/03/06 00:22:44;;;;;;;5.60;1.48;;;1.50;99.90;;;;;;5075542;28;20160;-82
2023/03/06 00:25:16;;;;;;;5.38;1.65;;;1.50;99.90;;;;;;5076837;28;20074;-84
2023/03/06 00:27:42;;;;;;;3.17;1.40;;;1.50;99.90;;;;;;5059562;28;20136;-81
2023/03/06 00:30:12;;;;;;;3.70;1.40;;;1.50;99.90;;;;;;5077843;28;20307;-82
2023/03/06 00:32:38;;;;;;;5.28;1.63;;;1.50;99.90;;;;;;5074992;28;20091;-82
2023/03/06 00:35:04;;;;;;;2.33;1.25;;;1.60;99.90;;;;;;5074465;28;20048;-82
2023/03/06 00:37:30;;;;;;;5.18;1.67;;;1.60;99.90;;;;;;5057434;28;20091;-81
2023/03/06 00:39:55;;;;;;;4.93;1.50;;;1.90;99.90;;;;;;5056429;28;20094;-82
2023/03/06 00:42:21;;;;;;;5.63;1.50;;;1.60;99.90;;;;;;5041404;28;20477;-81
2023/03/06 00:44:47;;;;;;;4.47;1.30;;;1.60;99.90;;;;;;5056036;28;20052;-82
2023/03/06 00:47:16;;;;;;;3.70;1.42;;;1.60;99.90;;;;;;5043021;28;20036;-82
2023/03/06 00:49:42;;;;;;;3.20;1.45;;;1.60;99.90;;;;;;5043282;28;20116;-85
2023/03/06 00:52:08;;;;;;;6.45;1.95;;;1.90;99.90;;;;;;5043801;28;20504;-84
2023/03/06 00:54:34;;;;;;;2.58;1.38;;;1.60;99.90;;;;;;5043929;28;20052;-85
2023/03/06 00:57:00;;;;;;;3.40;1.50;;;1.60;99.90;;;;;;5060141;28;20044;-85
2023/03/06 00:59:26;;;;;;;3.28;1.50;;;1.60;99.90;;;;;;5044003;28;20049;-82
2023/03/06 01:01:53;;;;;;;3.10;1.38;;;1.60;99.90;;;;;;5043182;28;20040;-82
2023/03/06 01:04:18;;;;;;;4.15;1.48;;;1.60;99.90;;;;;;5061233;28;20048;-82
2023/03/06 01:06:44;;;;;;;4.13;1.50;;;1.60;99.90;;;;;;5059593;28;20139;-83
2023/03/06 01:09:10;;;;;;;5.22;1.67;;;1.60;99.90;;;;;;5027702;28;20064;-82
2023/03/06 01:11:36;;;;;;;3.60;1.42;;;1.60;99.90;;;;;;5059907;28;20048;-82
2023/03/06 01:14:02;;;;;;;3.17;1.67;;;1.70;99.90;;;;;;5075799;28;20052;-84
2023/03/06 01:16:28;;;;;;;3.45;1.88;;;1.60;99.90;;;;;;5059973;28;20052;-84
2023/03/06 01:18:53;;;;;;;3.33;1.40;;;1.70;99.90;;;;;;5075278;28;20057;-84
2023/03/06 01:21:19;;;;;;;2.92;1.42;;;2.10;99.90;;;;;;5043895;28;20127;-84
2023/03/06 01:23:46;;;;;;;4.93;1.75;;;1.70;99.90;;;;;;5076244;28;20040;-81
2023/03/06 01:26:12;;;;;;;5.97;2.80;;;1.70;99.90;;;;;;5027996;28;20047;-83
2023/03/06 01:28:39;;;;;;;4.80;1.50;;;1.80;99.90;;;;;;5059017;28;20543;-81
2023/03/06 01:31:06;;;;;;;3.85;1.55;;;1.70;99.90;;;;;;5059067;28;20415;-83
2023/03/06 01:33:33;;;;;;;3.13;1.73;;;1.70;99.90;;;;;;5076485;28;20381;-85
2023/03/06 01:35:59;;;;;;;4.30;1.75;;;1.70;99.90;;;;;;5058178;28;20037;-81
2023/03/06 01:38:24;;;;;;;3.70;1.70;;;2.10;99.90;;;;;;5040758;28;20084;-83
2023/03/06 01:40:50;;;;;;;4.05;1.50;;;2.30;99.90;;;;;;5039524;28;20041;-83
2023/03/06 01:43:25;;;;;;;3.67;1.50;;;1.80;99.90;;;;;;5024357;28;20045;-84
2023/03/06 01:45:51;;;;;;;2.33;1.83;;;1.80;99.90;;;;;;5041799;28;20057;-85
2023/03/06 01:48:20;;;;;;;3.08;1.63;;;1.80;99.90;;;;;;5059336;28;20048;-84
2023/03/06 01:50:46;;;;;;;3.42;1.63;;;1.80;99.90;;;;;;5060352;28;20135;-84
2023/03/06 01:53:14;;;;;;;3.35;1.27;;;1.80;99.90;;;;;;5075631;28;20100;-84
2023/03/06 01:55:40;;;;;;;3.95;1.95;;;1.80;99.90;;;;;;5040410;28;20076;-82
2023/03/06 01:58:09;;;;;;;2.75;1.40;;;1.90;99.90;;;;;;5021181;28;20041;-83
2023/03/06 02:00:35;;;;;;;3.60;1.45;;;1.80;99.90;;;;;;5039280;28;20045;-82
2023/03/06 02:03:14;;;;;;;3.40;1.42;;;1.80;99.90;;;;;;5055229;28;20069;-84
2023/03/06 02:05:41;;;;;;;2.70;1.60;;;1.80;99.90;;;;;;5037984;28;20041;-85
2023/03/06 02:08:10;;;;;;;3.88;1.70;;;1.90;99.90;;;;;;5039599;28;20063;-83
2023/03/06 02:10:35;;;;;;;3.03;1.50;;;1.90;99.90;;;;;;5038461;28;20049;-85
2023/03/06 02:13:02;;;;;;;2.67;1.65;;;1.80;99.90;;;;;;5023396;28;20192;-84
2023/03/06 02:15:29;;;;;;;3.63;1.65;;;1.90;99.90;;;;;;5021708;28;20094;-82
2023/03/06 02:17:55;;;;;;;4.50;1.85;;;1.90;99.90;;;;;;5038177;28;20052;-83
2023/03/06 02:20:25;;;;;;;4.50;2.00;;;1.90;99.90;;;;;;5022569;28;20084;-82
2023/03/06 02:23:03;;;;;;;3.75;1.95;;;1.90;99.90;;;;;;5054070;28;20049;-84
2023/03/06 02:25:42;;;;;;;5.45;2.17;;;1.90;99.90;;;;;;5055246;28;20078;-82
2023/03/06 02:28:12;;;;;;;3.33;2.78;;;1.90;99.90;;;;;;5054364;28;20135;-80
2023/03/06 02:30:38;;;;;;;5.82;2.28;;;2.00;99.90;;;;;;5038749;28;20041;-82
2023/03/06 02:33:05;;;;;;;4.93;2.25;;;1.90;99.90;;;;;;5038316;28;20097;-83
2023/03/06 02:35:33;;;;;;;8.80;2.17;;;1.90;99.90;;;;;;5005302;28;20061;-83
2023/03/06 02:38:06;;;;;;;4.07;1.85;;;1.90;99.90;;;;;;5046190;28;20087;-84
2023/03/06 02:40:32;;;;;;;5.40;2.13;;;2.00;99.90;;;;;;5074259;28;20079;-81
2023/03/06 02:42:58;;;;;;;4.45;2.30;;;1.90;99.90;;;;;;5042251;28;20040;-82
2023/03/06 02:45:39;;;;;;;5.10;2.70;;;1.90;99.90;;;;;;5040868;28;20491;-80
2023/03/06 02:48:05;;;;;;;4.07;2.40;;;2.00;99.90;;;;;;5038323;28;20045;-83
2023/03/06 02:50:31;;;;;;;4.75;2.40;;;1.90;99.90;;;;;;5038185;28;20048;-83
2023/03/06 02:52:57;;;;;;;4.85;3.20;;;2.00;99.90;;;;;;5053884;28;20052;-84
2023/03/06 02:55:23;;;;;;;4.03;2.30;;;1.90;99.90;;;;;;5055409;28;20037;-80
2023/03/06 02:57:49;;;;;;;4.95;2.30;;;2.00;99.90;;;;;;5020328;28;20369;-80
2023/03/06 03:00:16;;;;;;;3.75;2.65;;;2.00;99.90;;;;;;5055384;28;20048;-81
2023/03/06 03:02:42;;;;;;;3.63;2.50;;;1.90;99.90;;;;;;5054078;28;20064;-82
2023/03/06 03:05:08;;;;;;;4.07;2.47;;;2.50;99.90;;;;;;5037359;28;20056;-81
2023/03/06 03:07:34;;;;;;;3.38;2.30;;;1.90;99.90;;;;;;5037663;28;20442;-82
2023/03/06 03:10:00;;;;;;;4.85;2.17;;;2.90;99.90;;;;;;5053583;28;20083;-80
2023/03/06 03:12:27;;;;;;;4.43;2.60;;;2.00;99.90;;;;;;5055264;28;20083;-81
2023/03/06 03:14:54;;;;;;;4.05;2.22;;;2.00;99.90;;;;;;5021002;28;20055;-83
2023/03/06 03:17:21;;;;;;;4.93;2.42;;;2.00;99.90;;;;;;5038894;28;20045;-80
2023/03/06 03:19:47;;;;;;;6.15;2.33;;;2.00;99.90;;;;;;5037695;28;20055;-81
2023/03/06 03:22:13;;;;;;;5.57;2.38;;;2.00;99.90;;;;;;5021564;28;20081;-81
2023/03/06 03:24:38;;;;;;;3.55;2.03;;;2.00;99.90;;;;;;5021684;28;20060;-79
2023/03/06 03:27:05;;;;;;;5.75;2.55;;;2.00;99.90;;;;;;5054232;28;20780;-81
2023/03/06 03:29:31;;;;;;;4.53;2.63;;;2.00;99.90;;;;;;5021636;28;20496;-79
2023/03/06 03:31:57;;;;;;;5.45;2.28;;;1.90;99.90;;;;;;5036441;28;20411;-79
2023/03/06 03:34:22;;;;;;;5.80;2.50;;;1.90;99.90;;;;;;5054499;28;20099;-79
2023/03/06 03:36:48;;;;;;;4.95;2.38;;;1.90;99.90;;;;;;5020347;28;20105;-80
2023/03/06 03:39:14;;;;;;;4.75;2.65;;;1.80;99.90;;;;;;5072178;28;20052;-78
2023/03/06 03:41:40;;;;;;;4.60;2.35;;;1.80;99.90;;;;;;5058234;28;20044;-78
2023/03/06 03:44:05;;;;;;;4.93;2.88;;;2.00;99.90;;;;;;5073673;28;20116;-78
2023/03/06 03:46:31;;;;;;;5.85;2.30;;;1.90;99.90;;;;;;5058115;28;20037;-78
2023/03/06 03:48:57;;;;;;;3.83;2.60;;;1.70;99.90;;;;;;5024364;28;20091;-77
2023/03/06 03:51:23;;;;;;;2.42;1.70;;;2.00;99.90;;;;;;5041904;28;20051;-77
2023/03/06 03:53:49;;;;;;;2.20;1.15;;;2.00;99.90;;;;;;5074296;28;20093;-76
2023/03/06 03:56:15;;;;;;;2.10;0.95;;;1.70;99.90;;;;;;5077246;28;20056;-77
2023/03/06 03:58:41;;;;;;;2.45;1.40;;;1.60;99.90;;;;;;5059165;28;20052;-76
2023/03/06 04:01:07;;;;;;;2.25;1.10;;;1.50;99.90;;;;;;5040685;28;20052;-76
2023/03/06 04:03:33;;;;;;;3.58;1.67;;;1.70;99.90;;;;;;5073980;28;20131;-76
2023/03/06 04:05:59;;;;;;;2.70;1.10;;;1.40;99.90;;;;;;5056407;28;20576;-76
2023/03/06 04:08:25;;;;;;;3.90;1.40;;;1.50;99.90;;;;;;5074548;28;20508;-77
2023/03/06 04:10:52;;;;;;;3.97;1.40;;;1.30;99.90;;;;;;5073278;28;20071;-76
2023/03/06 04:13:20;;;;;;;3.95;1.90;;;1.30;99.90;;;;;;5074768;28;20044;-76
2023/03/06 04:15:51;;;;;;;2.72;1.50;;;1.20;99.90;;;;;;5057920;28;20059;-76
2023/03/06 04:18:18;;;;;;;3.95;1.70;;;1.20;99.90;;;;;;5073834;28;20080;-76
2023/03/06 04:20:44;;;;;;;2.40;1.55;;;1.20;99.90;;;;;;5058193;28;20045;-76
2023/03/06 04:23:10;;;;;;;3.10;1.38;;;1.20;99.90;;;;;;5077345;28;20068;-76
2023/03/06 04:25:36;;;;;;;2.75;1.45;;;1.30;99.90;;;;;;5078941;28;20048;-76
2023/03/06 04:28:02;;;;;;;3.40;1.40;;;1.20;99.90;;;;;;5076774;28;20044;-76
2023/03/06 04:30:28;;;;;;;2.67;1.33;;;1.10;99.90;;;;;;5061033;28;20044;-75
2023/03/06 04:32:54;;;;;;;2.88;1.40;;;1.10;99.90;;;;;;5078733;28;20115;-76
2023/03/06 04:35:20;;;;;;;2.97;1.30;;;1.30;99.90;;;;;;5076630;28;20047;-76
2023/03/06 04:37:45;;;;;;;1.50;1.02;;;1.10;99.90;;;;;;5063124;28;20074;-75
2023/03/06 04:40:20;;;;;;;2.10;1.30;;;1.10;99.90;;;;;;5078369;28;20053;-76
2023/03/06 04:42:46;;;;;;;2.20;1.10;;;1.10;99.90;;;;;;5063748;28;20056;-76
2023/03/06 04:45:13;;;;;;;2.17;1.17;;;1.00;99.90;;;;;;5061588;28;20446;-76
2023/03/06 04:47:38;;;;;;;1.83;1.00;;;1.00;99.90;;;;;;5081086;28;20393;-76
2023/03/06 04:50:05;;;;;;;2.17;1.17;;;1.00;99.90;;;;;;5079498;28;20055;-76
2023/03/06 04:52:30;;;;;;;2.05;1.10;;;1.10;99.90;;;;;;5077931;28;20222;-76
2023/03/06 04:54:56;;;;;;;1.92;1.00;;;1.00;99.90;;;;;;5077879;28;20037;-76
2023/03/06 04:57:22;;;;;;;1.65;0.82;;;1.00;99.90;;;;;;5043509;28;20041;-76
2023/03/06 04:59:49;;;;;;;3.08;1.10;;;1.00;99.90;;;;;;5077783;28;20064;-76
2023/03/06 05:02:16;;;;;;;2.30;1.08;;;1.00;99.90;;;;;;5060406;28;20503;-76
2023/03/06 05:04:42;;;;;;;2.15;1.10;;;1.00;99.90;;;;;;5077739;28;20060;-76
2023/03/06 05:07:08;;;;;;;2.17;1.30;;;1.00;99.90;;;;;;5027658;28;20572;-76
2023/03/06 05:09:34;;;;;;;1.80;1.10;;;1.00;99.90;;;;;;5076897;28;20110;-76
2023/03/06 05:12:00;;;;;;;1.90;1.05;;;1.00;99.90;;;;;;5076977;28;20056;-75
2023/03/06 05:14:29;;;;;;;1.73;1.10;;;1.00;99.90;;;;;;5075647;28;20048;-75
2023/03/06 05:16:55;;;;;;;2.17;1.05;;;1.00;99.90;;;;;;5060341;28;20068;-75
2023/03/06 05:19:20;;;;;;;1.60;1.05;;;0.90;99.90;;;;;;5058865;28;20102;-75
2023/03/06 05:21:46;;;;;;;2.03;1.23;;;1.20;99.90;;;;;;5060499;28;20102;-75
2023/03/06 05:24:12;;;;;;;1.83;1.30;;;1.10;99.90;;;;;;5076800;28;20501;-76
2023/03/06 05:26:38;;;;;;;1.77;0.95;;;1.00;99.90;;;;;;5076977;28;20091;-76
2023/03/06 05:29:03;;;;;;;2.08;1.00;;;1.00;99.90;;;;;;5076573;28;20065;-75
2023/03/06 05:31:29;;;;;;;2.13;1.00;;;1.00;99.90;;;;;;5075160;28;20040;-76
2023/03/06 05:33:56;;;;;;;2.00;1.10;;;1.00;99.90;;;;;;5076513;28;20404;-76
2023/03/06 05:36:22;;;;;;;2.50;1.50;;;1.10;99.90;;;;;;5075365;28;20045;-75
2023/03/06 05:38:48;;;;;;;2.53;1.52;;;1.00;99.90;;;;;;5040483;28;20041;-75
2023/03/06 05:41:14;;;;;;;2.20;1.05;;;1.10;99.90;;;;;;5056714;28;20052;-75
2023/03/06 05:43:40;;;;;;;1.92;1.10;;;1.00;99.90;;;;;;5056368;28;20048;-76
2023/03/06 05:46:06;;;;;;;1.90;1.27;;;1.50;99.90;;;;;;5044459;28;20058;-76
2023/03/06 05:48:33;;;;;;;1.80;1.20;;;1.10;99.90;;;;;;5059040;28;20041;-76
2023/03/06 05:51:00;;;;;;;2.85;1.45;;;1.10;99.90;;;;;;5076723;28;20048;-76
2023/03/06 05:53:28;;;;;;;2.05;1.10;;;1.20;99.90;;;;;;5059581;28;20274;-76
2023/03/06 05:56:05;;;;;;;2.28;1.20;;;1.10;99.90;;;;;;5060550;28;20048;-76
2023/03/06 05:58:32;;;;;;;2.10;1.17;;;1.00;99.90;;;;;;5075670;28;20087;-76
2023/03/06 06:00:59;;;;;;;1.92;1.20;;;1.00;99.90;;;;;;5075067;28;20075;-75
2023/03/06 06:03:25;;;;;;;2.10;1.20;;;1.20;99.90;;;;;;5075682;28;20083;-75
2023/03/06 06:05:51;;;;;;;1.83;1.00;;;1.00;99.90;;;;;;5057601;28;20041;-76
2023/03/06 06:08:17;;;;;;;2.15;0.98;;;1.20;99.90;;;;;;5059950;28;20044;-75
2023/03/06 06:10:43;;;;;;;4.78;1.20;;;1.00;99.90;;;;;;5076453;28;20587;-75
2023/03/06 06:13:09;;;;;;;2.45;1.05;;;0.90;99.90;;;;;;5060006;28;20474;-75
2023/03/06 06:15:37;;;;;;;3.58;1.75;;;0.90;99.90;;;;;;5075825;28;20052;-75
2023/03/06 06:18:03;;;;;;;3.88;1.40;;;0.90;99.90;;;;;;5037991;28;20053;-76
2023/03/06 06:20:28;;;;;;;2.33;1.30;;;0.80;99.90;;;;;;5056235;28;20516;-75
2023/03/06 06:22:54;;;;;;;3.13;1.10;;;0.90;99.90;;;;;;5038233;28;20073;-75
2023/03/06 06:25:20;;;;;;;2.03;1.00;;;0.80;99.90;;;;;;5039470;28;20194;-75
2023/03/06 06:27:46;;;;;;;2.60;1.20;;;0.90;99.90;;;;;;5055198;28;20049;-76
2023/03/06 06:30:12;;;;;;;2.13;1.20;;;0.90;99.90;;;;;;5038493;28;20053;-75
2023/03/06 06:32:38;;;;;;;2.92;1.23;;;0.90;99.90;;;;;;5054721;28;20475;-76
2023/03/06 06:35:04;;;;;;;2.67;1.38;;;0.90;99.90;;;;;;5037785;28;20102;-76
2023/03/06 06:37:30;;;;;;;2.33;1.30;;;0.90;99.90;;;;;;5058836;28;20047;-76
2023/03/06 06:39:56;;;;;;;2.88;1.30;;;0.90;99.90;;;;;;5058314;28;20512;-75
2023/03/06 06:42:22;;;;;;;2.50;1.30;;;1.00;99.90;;;;;;5059203;28;20047;-75
2023/03/06 06:44:47;;;;;;;2.55;1.48;;;0.90;99.90;;;;;;5074085;28;20040;-75
2023/03/06 06:47:13;;;;;;;2.60;1.50;;;0.90;99.90;;;;;;5077470;28;20055;-75
2023/03/06 06:49:39;;;;;;;2.28;1.25;;;0.90;99.90;;;;;;5025556;28;20048;-75
2023/03/06 06:52:05;;;;;;;3.10;1.50;;;1.00;99.90;;;;;;5058474;28;20060;-75
2023/03/06 06:54:33;;;;;;;10.48;1.75;;;0.90;99.90;;;;;;5075327;28;20041;-75
2023/03/06 06:56:59;;;;;;;2.22;1.20;;;1.00;99.90;;;;;;5058209;28;20077;-75
2023/03/06 06:59:25;;;;;;;2.00;1.00;;;0.90;99.90;;;;;;5057494;28;20084;-75
2023/03/06 07:01:51;;;;;;;2.40;1.23;;;0.90;99.90;;;;;;5073549;28;20045;-75
2023/03/06 07:04:18;;;;;;;2.55;1.30;;;1.10;99.90;;;;;;5074921;28;20055;-75
2023/03/06 07:06:45;;;;;;;2.15;1.35;;;1.00;99.90;;;;;;5075442;28;20084;-75
2023/03/06 07:09:11;;;;;;;2.35;0.90;;;1.00;99.90;;;;;;5058072;28;20079;-74
2023/03/06 07:11:38;;;;;;;2.13;1.02;;;1.00;99.90;;;;;;5074962;28;20083;-75
2023/03/06 07:14:04;;;;;;;1.77;0.90;;;1.10;99.90;;;;;;5057652;28;20070;-75
2023/03/06 07:16:29;;;;;;;2.17;1.08;;;1.10;99.90;;;;;;5075504;28;20060;-75
2023/03/06 07:18:55;;;;;;;3.83;1.23;;;1.20;99.90;;;;;;5041000;28;20041;-75
2023/03/06 07:21:21;;;;;;;2.60;1.30;;;1.20;99.90;;;;;;5058785;28;20424;-75
2023/03/06 07:23:47;;;;;;;2.63;1.33;;;1.20;99.90;;;;;;5039910;28;20059;-75
2023/03/06 07:26:12;;;;;;;2.20;1.10;;;1.10;99.90;;;;;;5045797;28;20045;-75
2023/03/06 07:28:38;;;;;;;2.97;1.30;;;1.10;99.90;;;;;;5054020;28;20095;-74
2023/03/06 07:31:10;;;;;;;2.78;1.77;;;1.10;99.90;;;;;;5037627;28;20109;-74
2023/03/06 07:33:36;;;;;;;2.67;1.30;;;1.30;99.90;;;;;;5038275;28;20072;-74
2023/03/06 07:36:02;;;;;;;2.40;1.30;;;1.10;99.90;;;;;;5037529;28;20128;-74
2023/03/06 07:38:28;;;;;;;2.00;1.20;;;1.10;99.90;;;;;;5067050;28;20052;-74
2023/03/06 07:40:54;;;;;;;1.90;1.02;;;1.00;99.90;;;;;;5074283;28;20052;-74
2023/03/06 07:43:20;;;;;;;2.75;1.17;;;1.00;99.90;;;;;;5075318;28;20051;-74
2023/03/06 07:45:45;;;;;;;3.15;1.13;;;1.00;99.90;;;;;;5074400;28;20065;-74
2023/03/06 07:48:13;;;;;;;2.10;1.10;;;1.00;99.90;;;;;;5074066;28;20048;-74
2023/03/06 07:50:39;;;;;;;2.25;1.00;;;1.00;99.90;;;;;;5058056;28;20036;-74
2023/03/06 07:53:05;;;;;;;2.10;1.20;;;1.00;99.90;;;;;;5073859;28;20102;-74
2023/03/06 07:55:30;;;;;;;2.38;1.38;;;1.00;99.90;;;;;;5075345;28;20048;-74
2023/03/06 07:57:56;;;;;;;1.83;0.88;;;1.00;99.90;;;;;;5061400;28;20529;-74
2023/03/06 08:00:22;;;;;;;2.28;1.00;;;1.00;99.90;;;;;;5078704;28;20052;-74
2023/03/06 08:02:48;;;;;;;2.45;1.30;;;1.00;99.90;;;;;;5062111;28;20082;-74
2023/03/06 08:05:15;;;;;;;1.75;1.00;;;1.00;99.90;;;;;;5044559;28;20152;-74
2023/03/06 08:07:43;;;;;;;3.08;1.45;;;1.00;99.90;;;;;;5079019;28;20548;-74
2023/03/06 08:10:13;;;;;;;2.80;1.58;;;1.10;99.90;;;;;;5062738;28;20045;-74
2023/03/06 08:12:38;;;;;;;2.72;1.23;;;1.10;99.90;;;;;;5063030;28;20072;-74
2023/03/06 08:15:05;;;;;;;2.35;1.40;;;1.60;99.90;;;;;;5026353;28;20074;-74
2023/03/06 08:17:30;;;;;;;4.10;1.67;;;1.20;99.90;;;;;;5069667;28;20074;-73
2023/03/06 08:19:56;;;;;;;2.75;1.30;;;1.30;99.90;;;;;;5078167;28;20048;-74
2023/03/06 08:22:22;;;;;;;2.67;1.20;;;1.40;99.90;;;;;;5077469;28;20083;-74
2023/03/06 08:24:48;;;;;;;2.03;1.08;;;1.40;99.90;;;;;;5077781;28;20451;-73
2023/03/06 08:27:14;;;;;;;2.05;1.00;;;1.40;99.90;;;;;;5076869;28;20848;-74
2023/03/06 08:29:39;;;;;;;2.20;1.17;;;1.00;99.90;;;;;;5077428;28;20543;-73
2023/03/06 08:32:05;;;;;;;3.72;1.10;;;1.90;99.90;;;;;;5043661;28;20055;-73
2023/03/06 08:34:31;;;;;;;2.25;1.00;;;1.60;99.90;;;;;;5061200;28;20318;-73
2023/03/06 08:36:56;;;;;;;2.05;0.95;;;1.60;99.90;;;;;;5060337;28;20048;-73
2023/03/06 08:39:22;;;;;;;3.15;1.02;;;1.60;99.90;;;;;;5059609;28;20041;-73
2023/03/06 08:41:48;;;;;;;2.47;1.15;;;1.70;99.90;;;;;;5077641;28;20044;-73
2023/03/06 08:44:14;;;;;;;3.30;0.93;;;1.80;99.90;;;;;;5076354;28;20048;-74
2023/03/06 08:46:40;;;;;;;1.65;0.80;;;2.00;99.90;;;;;;5077228;28;20044;-74
2023/03/06 08:49:05;;;;;;;1.95;0.90;;;2.00;99.90;;;;;;5067211;28;20119;-74
2023/03/06 08:51:32;;;;;;;4.65;1.25;;;2.10;99.90;;;;;;5043168;28;20091;-74
2023/03/06 08:53:58;;;;;;;1.83;1.00;;;2.20;99.90;;;;;;5054605;28;20045;-74
2023/03/06 08:56:32;;;;;;;1.67;0.98;;;2.40;99.90;;;;;;5056854;28;20051;-74
2023/03/06 08:59:00;;;;;;;4.18;1.15;;;2.50;99.90;;;;;;5058132;28;20431;-74
2023/03/06 09:01:32;;;;;;;6.20;1.55;;;2.70;99.90;;;;;;5056341;28;20041;-74
2023/03/06 09:04:00;;;;;;;1.67;0.93;;;2.80;99.90;;;;;;5044501;28;20127;-74
2023/03/06 09:06:30;;;;;;;3.22;1.00;;;2.90;99.90;;;;;;5059984;28;20049;-73
2023/03/06 09:08:56;;;;;;;2.20;0.90;;;3.00;99.90;;;;;;5078485;28;20512;-74
2023/03/06 09:11:23;;;;;;;1.55;0.90;;;3.10;99.90;;;;;;5078255;28;20049;-74
2023/03/06 09:13:49;;;;;;;2.90;0.82;;;3.10;99.90;;;;;;5077369;28;20052;-75
2023/03/06 09:16:15;;;;;;;1.65;0.93;;;3.40;99.90;;;;;;5060143;28;20580;-74
2023/03/06 09:18:40;;;;;;;2.90;0.98;;;3.40;99.90;;;;;;5059131;28;20049;-74
2023/03/06 09:21:07;;;;;;;3.65;0.90;;;3.50;99.90;;;;;;5077325;28;20045;-74
2023/03/06 09:23:34;;;;;;;3.38;0.93;;;3.70;99.90;;;;;;5075331;28;20044;-74
2023/03/06 09:26:00;;;;;;;2.95;1.17;;;3.80;99.90;;;;;;5076711;28;20049;-75
2023/03/06 09:28:26;;;;;;;2.38;1.00;;;4.00;99.90;;;;;;5075943;28;20601;-74
2023/03/06 09:30:53;;;;;;;2.63;1.25;;;4.10;99.90;;;;;;5075277;28;20091;-74
2023/03/06 09:33:20;;;;;;;2.20;1.00;;;4.10;99.90;;;;;;5042817;28;20037;-74
2023/03/06 09:35:54;;;;;;;2.55;0.90;;;4.10;99.90;;;;;;5075593;28;20182;-75
2023/03/06 09:38:24;;;;;;;1.60;0.90;;;4.20;99.90;;;;;;5076128;28;20432;-75
2023/03/06 09:40:56;;;;;;;1.48;0.80;;;4.20;99.90;;;;;;5075680;28;20040;-74
2023/03/06 09:43:28;;;;;;;2.20;0.95;;;4.30;99.90;;;;;;5076592;28;20037;-74
2023/03/06 09:45:54;;;;;;;1.48;0.73;;;4.30;99.90;;;;;;5059030;28;20054;-74
2023/03/06 09:48:27;;;;;;;2.58;1.00;;;4.30;99.90;;;;;;5058982;28;20072;-74
2023/03/06 09:51:11;;;;;;;3.85;1.10;;;4.40;99.90;;;;;;5076451;28;20052;-74
2023/03/06 09:53:54;;;;;;;2.83;1.00;;;4.40;99.90;;;;;;5075536;28;20045;-75
2023/03/06 09:56:22;;;;;;;3.63;1.30;;;4.40;99.90;;;;;;5075412;28;20049;-75
2023/03/06 09:58:54;;;;;;;2.95;1.00;;;4.40;99.90;;;;;;5089836;28;20552;-74
2023/03/06 10:01:31;;;;;;;2.75;0.93;;;4.40;99.90;;;;;;5077971;28;20067;-75
2023/03/06 10:04:00;;;;;;;1.85;0.90;;;4.40;99.90;;;;;;5079339;28;20055;-74
2023/03/06 10:06:30;;;;;;;3.22;1.10;;;4.30;99.90;;;;;;5065261;28;20041;-75
2023/03/06 10:09:19;;;;;;;1.40;0.60;;;4.40;99.90;;;;;;5055986;28;20546;-75
2023/03/06 10:12:03;;;;;;;4.40;0.88;;;4.50;99.90;;;;;;5056025;28;20049;-75
2023/03/06 10:14:34;;;;;;;2.20;0.70;;;4.60;99.90;;;;;;5054500;28;20045;-75
2023/03/06 10:17:00;;;;;;;2.50;0.70;;;4.80;99.90;;;;;;5057449;28;20048;-75
2023/03/06 10:19:38;;;;;;;1.30;0.70;;;4.90;99.90;;;;;;5056303;28;20043;-75
2023/03/06 10:22:31;;;;;;;2.92;0.85;;;5.30;99.90;;;;;;5055352;28;20163;-75
2023/03/06 10:25:23;;;;;;;4.30;1.60;;;5.70;99.90;;;;;;5055373;28;20230;-74
2023/03/06 10:28:17;;;;;;;1.58;0.50;;;6.10;99.90;;;;;;5054709;28;20041;-75
2023/03/06 10:31:09;;;;;;;2.22;0.70;;;7.10;99.90;;;;;;5054246;28;20041;-75
2023/03/06 10:33:50;;;;;;;1.92;0.63;;;7.10;99.90;;;;;;5038495;28;20077;-75
2023/03/06 10:36:18;;;;;;;2.05;1.05;;;7.60;99.90;;;;;;5054150;28;20053;-75
2023/03/06 10:38:44;;;;;;;2.45;0.50;;;7.80;99.90;;;;;;5062092;28;20041;-76
2023/03/06 10:41:10;;;;;;;2.20;0.60;;;7.90;99.90;;;;;;5061592;28;20121;-75
2023/03/06 10:43:44;;;;;;;2.80;0.60;;;8.00;99.90;;;;;;5054214;28;20049;-75
2023/03/06 10:46:13;;;;;;;1.10;0.50;;;8.00;99.90;;;;;;5059391;28;20084;-75
2023/03/06 10:48:40;;;;;;;2.10;0.50;;;7.90;99.90;;;;;;5063378;28;20048;-75
2023/03/06 10:51:22;;;;;;;0.57;0.40;;;7.70;99.90;;;;;;5058376;28;20113;-75
2023/03/06 10:53:55;;;;;;;1.10;0.40;;;7.90;99.90;;;;;;5056013;28;20052;-76
2023/03/06 10:56:32;;;;;;;2.28;0.57;;;8.10;99.90;;;;;;5054281;28;20508;-76
2023/03/06 10:59:05;;;;;;;1.17;0.40;;;8.20;99.90;;;;;;5053742;28;20044;-75
2023/03/06 11:01:31;;;;;;;1.75;0.57;;;8.00;99.90;;;;;;5053360;28;20052;-76
2023/03/06 11:04:16;;;;;;;1.13;0.40;;;8.00;99.90;;;;;;5042109;28;20044;-76
2023/03/06 11:06:43;;;;;;;1.35;0.40;;;8.30;99.90;;;;;;5053811;28;20053;-76
2023/03/06 11:09:24;;;;;;;1.45;0.45;;;8.20;99.90;;;;;;5049797;28;20075;-76
2023/03/06 11:11:51;;;;;;;1.02;0.50;;;8.10;99.90;;;;;;5055966;28;20068;-76
2023/03/06 11:14:21;;;;;;;0.93;0.47;;;8.10;99.90;;;;;;5036311;28;20100;-76
2023/03/06 11:16:52;;;;;;;1.58;0.50;;;8.20;99.90;;;;;;5054520;28;20045;-76
2023/03/06 11:19:28;;;;;;;1.20;0.55;;;8.50;99.90;;;;;;5054983;28;20048;-76
2023/03/06 11:22:15;;;;;;;1.63;0.40;;;8.70;99.90;;;;;;5054726;28;20174;-76
2023/03/06 11:24:50;;;;;;;2.05;0.65;;;9.00;99.90;;;;;;5053504;28;20041;-77
2023/03/06 11:27:25;;;;;;;1.50;0.50;;;8.90;99.90;;;;;;5044094;28;20048;-77
2023/03/06 11:29:54;;;;;;;1.50;0.60;;;9.50;99.90;;;;;;5064126;28;20063;-74
2023/03/06 11:32:26;;;;;;;1.83;0.50;;;9.30;99.90;;;;;;5052988;28;20053;-75
2023/03/06 11:35:02;;;;;;;3.63;0.50;;;8.60;99.90;;;;;;5038388;28;20335;-75
2023/03/06 11:37:31;;;;;;;1.60;0.40;;;8.00;99.90;;;;;;5061115;28;20056;-76
2023/03/06 11:40:19;;;;;;;0.73;0.40;;;7.70;99.90;;;;;;5052135;28;20559;-76
2023/03/06 11:43:11;;;;;;;1.88;0.50;;;7.80;99.90;;;;;;5048198;28;20045;-75
2023/03/06 11:45:44;;;;;;;3.28;0.60;;;7.60;99.90;;;;;;5053324;28;20048;-75
2023/03/06 11:48:13;;;;;;;2.50;0.57;;;7.20;99.90;;;;;;5062529;28;20053;-76
2023/03/06 11:50:48;;;;;;;2.05;0.50;;;7.10;99.90;;;;;;5058130;28;20041;-77
2023/03/06 11:53:20;;;;;;;1.35;0.45;;;7.40;99.90;;;;;;5056104;28;20413;-75
2023/03/06 11:56:14;;;;;;;2.35;0.50;;;7.90;99.90;;;;;;5052897;28;20041;-76
2023/03/06 11:58:59;;;;;;;1.83;0.43;;;8.20;99.90;;;;;;5052605;28;20049;-75
2023/03/06 12:01:51;;;;;;;1.45;0.50;;;8.10;99.90;;;;;;5065443;28;20107;-76
2023/03/06 12:05:08;;;;;;;1.05;0.40;;;7.70;99.90;;;;;;5053478;28;20049;-75
2023/03/06 12:08:16;;;;;;;2.25;0.60;;;7.70;99.90;;;;;;5056987;28;20077;-78
2023/03/06 12:11:04;;;;;;;0.85;0.45;;;7.50;99.90;;;;;;5056361;28;20053;-75
2023/03/06 12:13:49;;;;;;;1.40;0.60;;;7.10;99.90;;;;;;5036189;28;20059;-77
2023/03/06 12:16:19;;;;;;;0.77;0.40;;;6.90;99.90;;;;;;5063364;28;20037;-77
2023/03/06 12:18:59;;;;;;;0.65;0.40;;;6.80;99.90;;;;;;5051616;28;20087;-77
2023/03/06 12:21:32;;;;;;;3.25;0.95;;;6.70;99.90;;;;;;5052321;28;20052;-77
2023/03/06 12:24:25;;;;;;;0.75;0.50;;;6.70;99.90;;;;;;5054261;28;20040;-78
2023/03/06 12:27:11;;;;;;;1.75;0.57;;;6.60;99.90;;;;;;5060600;28;20066;-76
2023/03/06 12:29:46;;;;;;;;;;;6.80;99.90;;;;;;5039064;28;20389;-76
2023/03/06 12:32:30;;;;;;;1.35;0.50;;;6.70;99.90;;;;;;5054274;28;19924;-75
2023/03/06 12:35:24;;;;;;;0.75;0.40;;;6.50;99.90;;;;;;5041199;28;20052;-76
2023/03/06 12:38:05;;;;;;;1.05;0.50;;;6.50;99.90;;;;;;5058318;28;20075;-76
2023/03/06 12:40:46;;;;;;;1.08;0.50;;;6.50;99.90;;;;;;5060909;28;20056;-75
2023/03/06 12:43:47;;;;;;;1.20;0.40;;;6.30;99.90;;;;;;5061078;28;20052;-75
2023/03/06 12:46:15;;;;;;;2.45;0.50;;;6.20;99.90;;;;;;5055996;28;20048;-78
2023/03/06 12:48:44;;;;;;;0.80;0.50;;;6.20;99.90;;;;;;5057241;28;20063;-76
2023/03/06 12:51:14;;;;;;;1.65;0.52;;;6.10;99.90;;;;;;5042832;28;20041;-77
2023/03/06 12:53:41;;;;;;;0.95;0.57;;;6.20;99.90;;;;;;5059218;28;20455;-77
2023/03/06 12:56:08;;;;;;;3.00;0.50;;;6.20;99.90;;;;;;5062130;28;20099;-77
2023/03/06 12:58:45;;;;;;;1.42;0.82;;;6.20;99.90;;;;;;5058184;28;20047;-76
2023/03/06 13:01:51;;;;;;;1.50;0.50;;;6.20;99.90;;;;;;5060187;28;20080;-77
2023/03/06 13:04:39;;;;;;;3.08;0.60;;;6.10;99.90;;;;;;5031850;28;20061;-76
2023/03/06 13:07:29;;;;;;;1.08;0.55;;;6.00;99.90;;;;;;5037375;28;20041;-78
2023/03/06 13:10:01;;;;;;;1.92;0.60;;;5.90;99.90;;;;;;5055232;28;20080;-79